sensor_id;sensor_type;location;lat;lon;timestamp;pressure;altitude;pressure_sealevel;temperature;humidity
68107;BME280;54892;47.488;19.026;2023-05-18T00:01:43;100086.31;;;13.03;86.48
68107;BME280;54892;47.488;19.026;2023-05-18T00:04:46;100069.62;;;12.98;86.63
68107;BME280;54892;47.488;19.026;2023-05-18T00:07:49;100084.47;;;12.93;87.50
68107;BME280;54892;47.488;19.026;2023-05-18T00:10:54;100086.06;;;12.94;87.86
68107;BME280;54892;47.488;19.026;2023-05-18T00:13:58;100083.72;;;12.83;89.29
68107;BME280;54892;47.488;19.026;2023-05-18T00:17:02;100084.78;;;12.82;90.84
68107;BME280;54892;47.488;19.026;2023-05-18T00:20:06;100084.50;;;12.83;91.49
68107;BME280;54892;47.488;19.026;2023-05-18T00:23:10;100085.56;;;12.87;91.82
68107;BME280;54892;47.488;19.026;2023-05-18T00:26:17;100082.91;;;12.87;91.21
68107;BME280;54892;47.488;19.026;2023-05-18T00:29:20;100080.28;;;12.82;91.66
68107;BME280;54892;47.488;19.026;2023-05-18T00:32:25;100093.78;;;12.75;92.72
68107;BME280;54892;47.488;19.026;2023-05-18T00:35:28;100086.62;;;12.81;93.07
68107;BME280;54892;47.488;19.026;2023-05-18T00:38:31;100085.06;;;12.75;93.70
68107;BME280;54892;47.488;19.026;2023-05-18T00:41:35;100082.91;;;12.77;93.67
68107;BME280;54892;47.488;19.026;2023-05-18T00:44:38;100077.63;;;12.82;94.76
68107;BME280;54892;47.488;19.026;2023-05-18T00:47:43;100085.31;;;12.78;95.41
68107;BME280;54892;47.488;19.026;2023-05-18T00:50:46;100082.41;;;12.75;96.47
68107;BME280;54892;47.488;19.026;2023-05-18T00:53:51;100091.13;;;12.75;96.78
68107;BME280;54892;47.488;19.026;2023-05-18T00:56:54;100091.94;;;12.71;96.56
68107;BME280;54892;47.488;19.026;2023-05-18T01:00:03;100087.69;;;12.64;97.40
68107;BME280;54892;47.488;19.026;2023-05-18T01:03:09;100096.19;;;12.72;97.78
68107;BME280;54892;47.488;19.026;2023-05-18T01:06:13;100098.84;;;12.72;97.47
68107;BME280;54892;47.488;19.026;2023-05-18T01:09:16;100094.06;;;12.69;97.51
68107;BME280;54892;47.488;19.026;2023-05-18T01:12:25;100100.94;;;12.75;97.34
68107;BME280;54892;47.488;19.026;2023-05-18T01:15:33;100105.19;;;12.66;97.79
68107;BME280;54892;47.488;19.026;2023-05-18T01:18:44;100107.59;;;12.67;98.13
68107;BME280;54892;47.488;19.026;2023-05-18T01:21:56;100104.91;;;12.72;98.08
68107;BME280;54892;47.488;19.026;2023-05-18T01:25:04;100112.59;;;12.63;97.54
68107;BME280;54892;47.488;19.026;2023-05-18T01:28:13;100107.84;;;12.60;98.23
68107;BME280;54892;47.488;19.026;2023-05-18T01:31:18;100107.28;;;12.63;98.94
68107;BME280;54892;47.488;19.026;2023-05-18T01:34:22;100113.66;;;12.62;98.40
68107;BME280;54892;47.488;19.026;2023-05-18T01:37:25;100114.19;;;12.64;98.75
68107;BME280;54892;47.488;19.026;2023-05-18T01:40:32;100114.97;;;12.60;98.46
68107;BME280;54892;47.488;19.026;2023-05-18T01:43:43;100114.19;;;12.64;97.77
68107;BME280;54892;47.488;19.026;2023-05-18T01:46:52;100123.19;;;12.63;97.44
68107;BME280;54892;47.488;19.026;2023-05-18T01:50:02;100129.03;;;12.55;98.21
68107;BME280;54892;47.488;19.026;2023-05-18T01:53:19;100135.09;;;12.56;98.89
68107;BME280;54892;47.488;19.026;2023-05-18T01:56:26;100130.06;;;12.64;98.20
68107;BME280;54892;47.488;19.026;2023-05-18T01:59:32;100129.28;;;12.64;98.35
68107;BME280;54892;47.488;19.026;2023-05-18T02:02:35;100132.22;;;12.57;98.58
68107;BME280;54892;47.488;19.026;2023-05-18T02:05:39;100134.03;;;12.57;98.94
68107;BME280;54892;47.488;19.026;2023-05-18T02:08:42;100135.66;;;12.63;98.80
68107;BME280;54892;47.488;19.026;2023-05-18T02:11:46;100135.63;;;12.58;98.52
68107;BME280;54892;47.488;19.026;2023-05-18T02:14:50;100133.78;;;12.58;98.84
68107;BME280;54892;47.488;19.026;2023-05-18T02:17:56;100140.94;;;12.58;98.81
68107;BME280;54892;47.488;19.026;2023-05-18T02:20:59;100144.09;;;12.55;99.29
68107;BME280;54892;47.488;19.026;2023-05-18T02:24:03;100148.34;;;12.56;99.21
68107;BME280;54892;47.488;19.026;2023-05-18T02:27:07;100153.13;;;12.48;99.47
68107;BME280;54892;47.488;19.026;2023-05-18T02:30:13;100157.06;;;12.51;99.93
68107;BME280;54892;47.488;19.026;2023-05-18T02:33:16;100154.97;;;12.53;99.26
68107;BME280;54892;47.488;19.026;2023-05-18T02:36:20;100155.22;;;12.46;99.67
68107;BME280;54892;47.488;19.026;2023-05-18T02:39:24;100161.59;;;12.51;99.77
68107;BME280;54892;47.488;19.026;2023-05-18T02:42:27;100158.41;;;12.48;100.00
68107;BME280;54892;47.488;19.026;2023-05-18T02:45:32;100161.84;;;12.44;99.77
68107;BME280;54892;47.488;19.026;2023-05-18T02:48:36;100165.28;;;12.44;100.00
68107;BME280;54892;47.488;19.026;2023-05-18T02:51:39;100157.84;;;12.41;100.00
68107;BME280;54892;47.488;19.026;2023-05-18T02:54:43;100168.72;;;12.50;100.00
68107;BME280;54892;47.488;19.026;2023-05-18T02:57:46;100162.91;;;12.48;100.00
68107;BME280;54892;47.488;19.026;2023-05-18T03:00:51;100160.25;;;12.43;100.00
68107;BME280;54892;47.488;19.026;2023-05-18T03:03:56;100163.44;;;12.45;100.00
68107;BME280;54892;47.488;19.026;2023-05-18T03:06:59;100155.75;;;12.43;100.00
68107;BME280;54892;47.488;19.026;2023-05-18T03:10:04;100156.81;;;12.42;100.00
68107;BME280;54892;47.488;19.026;2023-05-18T03:13:08;100157.88;;;12.36;100.00
68107;BME280;54892;47.488;19.026;2023-05-18T03:16:13;100158.66;;;12.42;99.62
68107;BME280;54892;47.488;19.026;2023-05-18T03:19:16;100169.50;;;12.35;100.00
68107;BME280;54892;47.488;19.026;2023-05-18T03:22:19;100163.94;;;12.37;100.00
68107;BME280;54892;47.488;19.026;2023-05-18T03:25:24;100168.19;;;12.38;99.68
68107;BME280;54892;47.488;19.026;2023-05-18T03:28:27;100169.50;;;12.40;100.00
68107;BME280;54892;47.488;19.026;2023-05-18T03:31:32;100167.91;;;12.29;100.00
68107;BME280;54892;47.488;19.026;2023-05-18T03:34:35;100157.84;;;12.41;99.74
68107;BME280;54892;47.488;19.026;2023-05-18T03:37:39;100174.81;;;12.40;99.44
68107;BME280;54892;47.488;19.026;2023-05-18T03:40:42;100174.00;;;12.34;97.91
68107;BME280;54892;47.488;19.026;2023-05-18T03:43:46;100183.00;;;12.33;98.72
68107;BME280;54892;47.488;19.026;2023-05-18T03:46:51;100180.09;;;12.35;98.47
68107;BME280;54892;47.488;19.026;2023-05-18T03:49:54;100181.41;;;12.27;98.85
68107;BME280;54892;47.488;19.026;2023-05-18T03:52:58;100186.69;;;12.27;99.04
68107;BME280;54892;47.488;19.026;2023-05-18T03:56:01;100193.56;;;12.23;99.43
68107;BME280;54892;47.488;19.026;2023-05-18T03:59:04;100191.44;;;12.30;99.25
68107;BME280;54892;47.488;19.026;2023-05-18T04:02:09;100193.06;;;12.26;99.09
68107;BME280;54892;47.488;19.026;2023-05-18T04:05:14;100194.09;;;12.25;98.93
68107;BME280;54892;47.488;19.026;2023-05-18T04:08:17;100192.25;;;12.26;99.09
68107;BME280;54892;47.488;19.026;2023-05-18T04:11:21;100197.81;;;12.29;99.63
68107;BME280;54892;47.488;19.026;2023-05-18T04:14:24;100199.38;;;12.30;97.50
68107;BME280;54892;47.488;19.026;2023-05-18T04:17:30;100198.09;;;12.33;97.87
68107;BME280;54892;47.488;19.026;2023-05-18T04:20:34;100209.72;;;12.27;98.89
68107;BME280;54892;47.488;19.026;2023-05-18T04:23:38;100207.88;;;12.27;97.98
68107;BME280;54892;47.488;19.026;2023-05-18T04:26:41;100210.75;;;12.26;98.92
68107;BME280;54892;47.488;19.026;2023-05-18T04:29:44;100212.59;;;12.20;99.41
68107;BME280;54892;47.488;19.026;2023-05-18T04:32:49;100212.91;;;12.29;99.22
68107;BME280;54892;47.488;19.026;2023-05-18T04:35:53;100219.25;;;12.33;98.41
68107;BME280;54892;47.488;19.026;2023-05-18T04:38:56;100221.91;;;12.33;98.71
68107;BME280;54892;47.488;19.026;2023-05-18T04:42:00;100221.66;;;12.29;98.74
68107;BME280;54892;47.488;19.026;2023-05-18T04:45:06;100220.84;;;12.29;96.72
68107;BME280;54892;47.488;19.026;2023-05-18T04:48:10;100217.13;;;12.30;97.00
68107;BME280;54892;47.488;19.026;2023-05-18T04:51:15;100220.31;;;12.27;97.54
68107;BME280;54892;47.488;19.026;2023-05-18T04:54:19;100219.50;;;12.26;97.54
68107;BME280;54892;47.488;19.026;2023-05-18T04:57:24;100221.09;;;12.32;96.81
68107;BME280;54892;47.488;19.026;2023-05-18T05:00:28;100224.28;;;12.29;97.07
68107;BME280;54892;47.488;19.026;2023-05-18T05:03:33;100222.94;;;12.27;97.56
68107;BME280;54892;47.488;19.026;2023-05-18T05:06:36;100226.94;;;12.29;97.79
68107;BME280;54892;47.488;19.026;2023-05-18T05:09:40;100230.06;;;12.21;97.11
68107;BME280;54892;47.488;19.026;2023-05-18T05:12:43;100231.69;;;12.32;97.30
68107;BME280;54892;47.488;19.026;2023-05-18T05:15:48;100230.13;;;12.37;95.70
68107;BME280;54892;47.488;19.026;2023-05-18T05:18:53;100232.22;;;12.34;95.58
68107;BME280;54892;47.488;19.026;2023-05-18T05:21:56;100235.69;;;12.35;96.04
68107;BME280;54892;47.488;19.026;2023-05-18T05:25:00;100238.56;;;12.33;96.39
68107;BME280;54892;47.488;19.026;2023-05-18T05:28:04;100240.19;;;12.40;96.16
68107;BME280;54892;47.488;19.026;2023-05-18T05:31:08;100240.19;;;12.40;95.64
68107;BME280;54892;47.488;19.026;2023-05-18T05:34:12;100240.97;;;12.40;95.80
68107;BME280;54892;47.488;19.026;2023-05-18T05:37:16;100247.06;;;12.46;94.79
68107;BME280;54892;47.488;19.026;2023-05-18T05:40:20;100248.13;;;12.40;94.76
68107;BME280;54892;47.488;19.026;2023-05-18T05:43:24;100243.87;;;12.39;95.89
68107;BME280;54892;47.488;19.026;2023-05-18T05:46:27;100244.16;;;12.42;95.94
68107;BME280;54892;47.488;19.026;2023-05-18T05:49:33;100249.47;;;12.42;96.02
68107;BME280;54892;47.488;19.026;2023-05-18T05:52:36;100264.25;;;12.38;96.06
68107;BME280;54892;47.488;19.026;2023-05-18T05:55:40;100261.91;;;12.42;95.47
68107;BME280;54892;47.488;19.026;2023-05-18T05:58:43;100258.75;;;12.45;95.50
68107;BME280;54892;47.488;19.026;2023-05-18T06:01:47;100269.09;;;12.52;94.72
68107;BME280;54892;47.488;19.026;2023-05-18T06:04:52;100269.84;;;12.42;95.18
68107;BME280;54892;47.488;19.026;2023-05-18T06:07:55;100273.31;;;12.47;95.98
68107;BME280;54892;47.488;19.026;2023-05-18T06:10:59;100278.84;;;12.46;96.23
68107;BME280;54892;47.488;19.026;2023-05-18T06:14:03;100279.12;;;12.44;96.76
68107;BME280;54892;47.488;19.026;2023-05-18T06:17:06;100273.84;;;12.49;96.55
68107;BME280;54892;47.488;19.026;2023-05-18T06:20:12;100279.94;;;12.45;96.44
68107;BME280;54892;47.488;19.026;2023-05-18T06:23:15;100276.50;;;12.49;96.93
68107;BME280;54892;47.488;19.026;2023-05-18T06:26:23;100284.41;;;12.44;96.95
68107;BME280;54892;47.488;19.026;2023-05-18T06:29:26;100284.44;;;12.49;96.76
68107;BME280;54892;47.488;19.026;2023-05-18T06:32:31;100287.63;;;12.52;97.20
68107;BME280;54892;47.488;19.026;2023-05-18T06:35:36;100290.78;;;12.48;96.64
68107;BME280;54892;47.488;19.026;2023-05-18T06:38:39;100288.41;;;12.52;97.22
68107;BME280;54892;47.488;19.026;2023-05-18T06:41:45;100294.50;;;12.58;96.83
68107;BME280;54892;47.488;19.026;2023-05-18T06:44:48;100301.09;;;12.50;97.71
68107;BME280;54892;47.488;19.026;2023-05-18T06:47:52;100299.56;;;12.59;96.96
68107;BME280;54892;47.488;19.026;2023-05-18T06:50:57;100308.53;;;12.53;96.04
68107;BME280;54892;47.488;19.026;2023-05-18T06:54:09;100311.97;;;12.54;96.19
68107;BME280;54892;47.488;19.026;2023-05-18T06:57:30;100317.00;;;12.55;96.69
68107;BME280;54892;47.488;19.026;2023-05-18T07:00:38;100321.75;;;12.48;96.54
68107;BME280;54892;47.488;19.026;2023-05-18T07:03:41;100320.97;;;12.53;96.04
68107;BME280;54892;47.488;19.026;2023-05-18T07:06:47;100319.63;;;12.50;95.98
68107;BME280;54892;47.488;19.026;2023-05-18T07:09:55;100324.16;;;12.49;96.48
68107;BME280;54892;47.488;19.026;2023-05-18T07:13:01;100323.84;;;12.41;97.64
68107;BME280;54892;47.488;19.026;2023-05-18T07:16:05;100330.75;;;12.52;97.44
68107;BME280;54892;47.488;19.026;2023-05-18T07:19:09;100333.91;;;12.49;98.51
68107;BME280;54892;47.488;19.026;2023-05-18T07:22:13;100332.88;;;12.50;98.74
68107;BME280;54892;47.488;19.026;2023-05-18T07:25:17;100336.31;;;12.56;97.55
68107;BME280;54892;47.488;19.026;2023-05-18T07:28:20;100341.87;;;12.49;98.05
68107;BME280;54892;47.488;19.026;2023-05-18T07:31:26;100336.88;;;12.53;98.42
68107;BME280;54892;47.488;19.026;2023-05-18T07:34:29;100340.28;;;12.53;98.64
68107;BME280;54892;47.488;19.026;2023-05-18T07:37:34;100340.81;;;12.50;97.74
68107;BME280;54892;47.488;19.026;2023-05-18T07:40:59;100351.16;;;12.57;98.97
68107;BME280;54892;47.488;19.026;2023-05-18T07:44:22;100355.13;;;12.54;98.88
68107;BME280;54892;47.488;19.026;2023-05-18T07:47:30;100348.28;;;12.58;99.91
68107;BME280;54892;47.488;19.026;2023-05-18T07:50:34;100349.84;;;12.64;98.28
68107;BME280;54892;47.488;19.026;2023-05-18T07:53:39;100353.31;;;12.70;97.83
68107;BME280;54892;47.488;19.026;2023-05-18T07:56:42;100348.53;;;12.62;98.29
68107;BME280;54892;47.488;19.026;2023-05-18T07:59:47;100361.25;;;12.60;99.08
68107;BME280;54892;47.488;19.026;2023-05-18T08:02:50;100362.06;;;12.71;99.39
68107;BME280;54892;47.488;19.026;2023-05-18T08:05:54;100362.09;;;12.81;98.24
68107;BME280;54892;47.488;19.026;2023-05-18T08:08:59;100363.16;;;12.75;99.07
68107;BME280;54892;47.488;19.026;2023-05-18T08:12:03;100364.22;;;12.79;98.62
68107;BME280;54892;47.488;19.026;2023-05-18T08:15:08;100362.63;;;12.83;98.33
68107;BME280;54892;47.488;19.026;2023-05-18T08:18:12;100364.22;;;12.79;99.44
68107;BME280;54892;47.488;19.026;2023-05-18T08:21:16;100372.44;;;12.77;97.59
68107;BME280;54892;47.488;19.026;2023-05-18T08:24:20;100371.09;;;12.80;98.24
68107;BME280;54892;47.488;19.026;2023-05-18T08:27:24;100367.41;;;12.81;97.83
68107;BME280;54892;47.488;19.026;2023-05-18T08:30:27;100372.19;;;12.84;97.81
68107;BME280;54892;47.488;19.026;2023-05-18T08:33:30;100372.19;;;12.94;98.42
68107;BME280;54892;47.488;19.026;2023-05-18T08:36:34;100378.03;;;12.91;99.62
68107;BME280;54892;47.488;19.026;2023-05-18T08:39:39;100381.50;;;13.07;99.22
68107;BME280;54892;47.488;19.026;2023-05-18T08:42:46;100370.34;;;13.00;98.58
68107;BME280;54892;47.488;19.026;2023-05-18T08:45:54;100378.59;;;13.09;99.29
68107;BME280;54892;47.488;19.026;2023-05-18T08:49:01;100375.94;;;13.09;97.12
68107;BME280;54892;47.488;19.026;2023-05-18T08:52:08;100376.22;;;13.13;97.83
68107;BME280;54892;47.488;19.026;2023-05-18T08:55:13;100380.19;;;13.10;97.87
68107;BME280;54892;47.488;19.026;2023-05-18T08:58:19;100379.69;;;13.23;98.80
68107;BME280;54892;47.488;19.026;2023-05-18T09:01:26;100376.00;;;13.40;97.44
68107;BME280;54892;47.488;19.026;2023-05-18T09:04:31;100386.59;;;13.40;95.55
68107;BME280;54892;47.488;19.026;2023-05-18T09:07:36;100383.41;;;13.38;97.55
68107;BME280;54892;47.488;19.026;2023-05-18T09:10:42;100384.97;;;13.13;96.66
68107;BME280;54892;47.488;19.026;2023-05-18T09:13:45;100370.13;;;13.28;97.02
68107;BME280;54892;47.488;19.026;2023-05-18T09:16:51;100374.41;;;13.39;98.20
68107;BME280;54892;47.488;19.026;2023-05-18T09:19:56;100375.47;;;13.59;98.01
68107;BME280;54892;47.488;19.026;2023-05-18T09:22:59;100381.31;;;13.66;96.44
68107;BME280;54892;47.488;19.026;2023-05-18T09:26:04;100379.19;;;13.58;96.14
68107;BME280;54892;47.488;19.026;2023-05-18T09:29:15;100381.59;;;13.75;96.73
68107;BME280;54892;47.488;19.026;2023-05-18T09:32:20;100385.56;;;13.82;93.34
68107;BME280;54892;47.488;19.026;2023-05-18T09:35:24;100385.53;;;13.88;92.91
68107;BME280;54892;47.488;19.026;2023-05-18T09:38:27;100390.88;;;13.82;94.22
68107;BME280;54892;47.488;19.026;2023-05-18T09:41:31;100381.81;;;13.99;95.13
68107;BME280;54892;47.488;19.026;2023-05-18T09:44:35;100387.38;;;14.08;91.49
68107;BME280;54892;47.488;19.026;2023-05-18T09:47:39;100393.22;;;13.99;93.45
68107;BME280;54892;47.488;19.026;2023-05-18T09:50:42;100388.97;;;14.04;93.88
68107;BME280;54892;47.488;19.026;2023-05-18T09:53:46;100390.00;;;14.13;94.60
68107;BME280;54892;47.488;19.026;2023-05-18T09:56:51;100385.50;;;14.13;92.97
68107;BME280;54892;47.488;19.026;2023-05-18T10:00:03;100388.41;;;14.22;91.56
68107;BME280;54892;47.488;19.026;2023-05-18T10:03:18;100385.47;;;14.19;92.33
68107;BME280;54892;47.488;19.026;2023-05-18T10:06:25;100395.03;;;14.25;92.96
68107;BME280;54892;47.488;19.026;2023-05-18T10:09:29;100384.94;;;14.22;92.26
68107;BME280;54892;47.488;19.026;2023-05-18T10:12:37;100381.22;;;14.18;92.79
68107;BME280;54892;47.488;19.026;2023-05-18T10:15:46;100385.75;;;14.22;92.51
68107;BME280;54892;47.488;19.026;2023-05-18T10:18:50;100391.31;;;14.21;92.76
68107;BME280;54892;47.488;19.026;2023-05-18T10:21:56;100383.88;;;14.28;93.69
68107;BME280;54892;47.488;19.026;2023-05-18T10:25:03;100392.91;;;14.32;92.96
68107;BME280;54892;47.488;19.026;2023-05-18T10:28:09;100392.09;;;14.37;92.75
68107;BME280;54892;47.488;19.026;2023-05-18T10:31:14;100391.03;;;14.38;90.51
68107;BME280;54892;47.488;19.026;2023-05-18T10:34:18;100388.66;;;14.31;90.94
68107;BME280;54892;47.488;19.026;2023-05-18T10:37:24;100393.16;;;14.30;93.16
68107;BME280;54892;47.488;19.026;2023-05-18T10:40:32;100392.94;;;14.16;91.61
68107;BME280;54892;47.488;19.026;2023-05-18T10:43:39;100399.03;;;14.12;90.26
68107;BME280;54892;47.488;19.026;2023-05-18T10:46:43;100400.09;;;14.16;89.62
68107;BME280;54892;47.488;19.026;2023-05-18T10:49:47;100391.34;;;14.10;89.91
68107;BME280;54892;47.488;19.026;2023-05-18T10:52:51;100398.50;;;14.15;90.30
68107;BME280;54892;47.488;19.026;2023-05-18T10:55:55;100397.44;;;14.16;90.92
68107;BME280;54892;47.488;19.026;2023-05-18T10:59:00;100388.12;;;14.19;90.38
68107;BME280;54892;47.488;19.026;2023-05-18T11:02:03;100393.16;;;14.30;90.04
68107;BME280;54892;47.488;19.026;2023-05-18T11:05:07;100391.28;;;14.36;88.75
68107;BME280;54892;47.488;19.026;2023-05-18T11:08:11;100394.22;;;14.40;89.76
68107;BME280;54892;47.488;19.026;2023-05-18T11:11:16;100391.28;;;14.41;90.56
68107;BME280;54892;47.488;19.026;2023-05-18T11:14:29;100396.34;;;14.38;89.17
68107;BME280;54892;47.488;19.026;2023-05-18T11:17:32;100397.13;;;14.38;89.04
68107;BME280;54892;47.488;19.026;2023-05-18T11:20:36;100404.56;;;14.41;89.86
68107;BME280;54892;47.488;19.026;2023-05-18T11:23:40;100405.84;;;14.54;89.67
68107;BME280;54892;47.488;19.026;2023-05-18T11:26:44;100402.38;;;14.59;88.88
68107;BME280;54892;47.488;19.026;2023-05-18T11:29:49;100403.97;;;14.50;88.30
68107;BME280;54892;47.488;19.026;2023-05-18T11:33:07;100407.97;;;14.47;89.30
68107;BME280;54892;47.488;19.026;2023-05-18T11:36:11;100408.22;;;14.51;87.75
68107;BME280;54892;47.488;19.026;2023-05-18T11:39:22;100413.03;;;14.43;87.36
68107;BME280;54892;47.488;19.026;2023-05-18T11:42:31;100403.25;;;14.34;87.31
68107;BME280;54892;47.488;19.026;2023-05-18T11:45:50;100420.00;;;14.29;88.36
68107;BME280;54892;47.488;19.026;2023-05-18T11:48:54;100417.88;;;14.31;88.45
68107;BME280;54892;47.488;19.026;2023-05-18T11:52:04;100413.87;;;14.34;89.34
68107;BME280;54892;47.488;19.026;2023-05-18T11:55:12;100409.09;;;14.36;88.51
68107;BME280;54892;47.488;19.026;2023-05-18T11:58:16;100412.28;;;14.27;89.42
68107;BME280;54892;47.488;19.026;2023-05-18T12:01:22;100422.66;;;14.29;88.46
68107;BME280;54892;47.488;19.026;2023-05-18T12:04:27;100421.00;;;14.43;87.18
68107;BME280;54892;47.488;19.026;2023-05-18T12:07:30;100415.19;;;14.36;88.28
68107;BME280;54892;47.488;19.026;2023-05-18T12:10:35;100424.19;;;14.45;86.99
68107;BME280;54892;47.488;19.026;2023-05-18T12:13:40;100417.81;;;14.41;88.14
68107;BME280;54892;47.488;19.026;2023-05-18T12:16:46;100422.59;;;14.39;88.52
68107;BME280;54892;47.488;19.026;2023-05-18T12:19:50;100426.31;;;14.38;88.77
68107;BME280;54892;47.488;19.026;2023-05-18T12:22:54;100424.72;;;14.37;88.40
68107;BME280;54892;47.488;19.026;2023-05-18T12:25:58;100426.87;;;14.30;89.52
68107;BME280;54892;47.488;19.026;2023-05-18T12:29:01;100426.87;;;14.30;89.67
68107;BME280;54892;47.488;19.026;2023-05-18T12:32:07;100421.56;;;14.35;90.15
68107;BME280;54892;47.488;19.026;2023-05-18T12:35:11;100424.97;;;14.46;88.81
68107;BME280;54892;47.488;19.026;2023-05-18T12:38:16;100420.97;;;14.59;88.54
68107;BME280;54892;47.488;19.026;2023-05-18T12:41:23;100416.41;;;14.65;89.09
68107;BME280;54892;47.488;19.026;2023-05-18T12:44:28;100420.41;;;14.72;86.65
68107;BME280;54892;47.488;19.026;2023-05-18T12:47:40;100422.03;;;14.58;86.61
68107;BME280;54892;47.488;19.026;2023-05-18T12:50:46;100424.41;;;14.59;88.00
68107;BME280;54892;47.488;19.026;2023-05-18T12:53:50;100420.13;;;14.64;88.09
68107;BME280;54892;47.488;19.026;2023-05-18T12:56:54;100421.97;;;14.79;86.94
68107;BME280;54892;47.488;19.026;2023-05-18T13:00:02;100427.78;;;14.86;85.74
68107;BME280;54892;47.488;19.026;2023-05-18T13:03:14;100420.34;;;14.88;85.83
68107;BME280;54892;47.488;19.026;2023-05-18T13:06:18;100418.44;;;14.94;85.54
68107;BME280;54892;47.488;19.026;2023-05-18T13:09:22;100418.44;;;14.94;85.45
68107;BME280;54892;47.488;19.026;2023-05-18T13:12:34;100418.47;;;14.88;86.29
68107;BME280;54892;47.488;19.026;2023-05-18T13:15:38;100422.41;;;14.96;85.16
68107;BME280;54892;47.488;19.026;2023-05-18T13:18:44;100418.75;;;14.82;85.72
68107;BME280;54892;47.488;19.026;2023-05-18T13:21:54;100421.13;;;14.88;85.07
68107;BME280;54892;47.488;19.026;2023-05-18T13:24:58;100417.72;;;14.77;85.96
68107;BME280;54892;47.488;19.026;2023-05-18T13:28:02;100420.88;;;14.80;85.51
68107;BME280;54892;47.488;19.026;2023-05-18T13:31:05;100423.06;;;14.72;86.45
68107;BME280;54892;47.488;19.026;2023-05-18T13:34:10;100424.59;;;14.84;85.60
68107;BME280;54892;47.488;19.026;2023-05-18T13:37:14;100429.12;;;14.83;84.43
68107;BME280;54892;47.488;19.026;2023-05-18T13:40:19;100424.34;;;14.80;85.25
68107;BME280;54892;47.488;19.026;2023-05-18T13:43:22;100419.28;;;14.84;85.65
68107;BME280;54892;47.488;19.026;2023-05-18T13:46:26;100418.72;;;14.92;85.14
68107;BME280;54892;47.488;19.026;2023-05-18T13:49:30;100421.91;;;14.94;84.53
68107;BME280;54892;47.488;19.026;2023-05-18T13:52:34;100426.19;;;14.90;85.41
68107;BME280;54892;47.488;19.026;2023-05-18T13:55:37;100428.28;;;14.93;84.63
68107;BME280;54892;47.488;19.026;2023-05-18T13:58:40;100424.34;;;14.85;85.94
68107;BME280;54892;47.488;19.026;2023-05-18T14:01:44;100420.31;;;14.93;86.08
68107;BME280;54892;47.488;19.026;2023-05-18T14:04:49;100426.66;;;14.97;85.44
68107;BME280;54892;47.488;19.026;2023-05-18T14:07:53;100436.53;;;14.91;85.50
68107;BME280;54892;47.488;19.026;2023-05-18T14:10:57;100436.28;;;14.83;86.64
68107;BME280;54892;47.488;19.026;2023-05-18T14:14:01;100440.06;;;14.76;87.38
68107;BME280;54892;47.488;19.026;2023-05-18T14:17:04;100428.62;;;14.66;87.68
68107;BME280;54892;47.488;19.026;2023-05-18T14:20:10;100435.31;;;14.58;88.60
68107;BME280;54892;47.488;19.026;2023-05-18T14:23:14;100439.03;;;14.62;88.34
68107;BME280;54892;47.488;19.026;2023-05-18T14:26:18;100438.47;;;14.75;86.58
68107;BME280;54892;47.488;19.026;2023-05-18T14:29:21;100432.09;;;14.76;86.31
68107;BME280;54892;47.488;19.026;2023-05-18T14:32:24;100442.41;;;14.83;85.76
68107;BME280;54892;47.488;19.026;2023-05-18T14:35:29;100439.47;;;14.85;86.28
68107;BME280;54892;47.488;19.026;2023-05-18T14:38:32;100432.28;;;14.90;86.32
68107;BME280;54892;47.488;19.026;2023-05-18T14:41:35;100442.38;;;14.94;84.86
68107;BME280;54892;47.488;19.026;2023-05-18T14:44:39;100439.47;;;14.90;85.54
68107;BME280;54892;47.488;19.026;2023-05-18T14:47:42;100437.88;;;14.89;85.89
68107;BME280;54892;47.488;19.026;2023-05-18T14:50:47;100448.81;;;14.82;86.39
68107;BME280;54892;47.488;19.026;2023-05-18T14:53:50;100446.44;;;14.75;87.46
68107;BME280;54892;47.488;19.026;2023-05-18T14:56:54;100449.38;;;14.69;87.03
68107;BME280;54892;47.488;19.026;2023-05-18T14:59:57;100447.22;;;14.66;85.37
68107;BME280;54892;47.488;19.026;2023-05-18T15:03:01;100449.91;;;14.60;85.61
68107;BME280;54892;47.488;19.026;2023-05-18T15:06:05;100453.91;;;14.63;84.53
68107;BME280;54892;47.488;19.026;2023-05-18T15:09:09;100454.44;;;14.50;85.50
68107;BME280;54892;47.488;19.026;2023-05-18T15:12:12;100460.03;;;14.48;85.22
68107;BME280;54892;47.488;19.026;2023-05-18T15:15:17;100451.81;;;14.44;86.00
68107;BME280;54892;47.488;19.026;2023-05-18T15:18:20;100451.00;;;14.44;86.44
68107;BME280;54892;47.488;19.026;2023-05-18T15:21:25;100451.25;;;14.53;86.08
68107;BME280;54892;47.488;19.026;2023-05-18T15:24:28;100454.44;;;14.55;85.04
68107;BME280;54892;47.488;19.026;2023-05-18T15:27:31;100459.22;;;14.53;85.08
68107;BME280;54892;47.488;19.026;2023-05-18T15:30:34;100458.16;;;14.54;85.03
68107;BME280;54892;47.488;19.026;2023-05-18T15:33:38;100462.41;;;14.50;85.57
68107;BME280;54892;47.488;19.026;2023-05-18T15:36:44;100454.44;;;14.55;85.79
68107;BME280;54892;47.488;19.026;2023-05-18T15:39:48;100461.34;;;14.51;86.33
68107;BME280;54892;47.488;19.026;2023-05-18T15:42:51;100453.91;;;14.58;85.72
68107;BME280;54892;47.488;19.026;2023-05-18T15:45:55;100456.28;;;14.59;85.91
68107;BME280;54892;47.488;19.026;2023-05-18T15:48:58;100455.50;;;14.59;85.61
68107;BME280;54892;47.488;19.026;2023-05-18T15:52:03;100454.44;;;14.55;85.92
68107;BME280;54892;47.488;19.026;2023-05-18T15:55:08;100454.97;;;14.62;86.23